Hlavní strana
METAR-TAF:

METAR-TAF

Letiště :

Piešťany, Slovensko

Letiště Piešťany

zeměpisná šířka: 48-37-30N, zeměpisná délka: 017-49-43E, výška: 163 m

Aktuální stav počasí

Zpráva byla vytvořena před 30 minutami, v 04:30 UTC
Severní vítr 6 kt
Teplota 0°C
Vlhkost vzduchu 93%
Tlak 1023 hPa
Viditelnost 10 km a více

METAR: LZPP 180430Z AUTO 36006KT 9999 OVC076/// M00/M01 Q1023

Čas: 06:00 (05:00 UTC)

Předpověď počasí

Zpráva byla vytvořena před 12 hodinami a 0 minutami, v 17:00 UTC
Předpověď platná od 17 v 18 UTC do 18 v 03 UTC
Východojihovýchodní vítr 5 kt
Viditelnost: 4000 m
Polojasno ve výšce 1200 ft
Zataženo ve výšce 1800 ft
slabé sněžení, kouřmo
Dočasný
od 17 v 18 UTC do 18 v 03 UTC
Viditelnost: 1200 m
Zataženo ve výšce 400 ft
sníh

TAF: LZPP 171700Z 1718/1803 12005KT 4000 -SN BR SCT012 OVC018 TEMPO 1718/1803 1200 SN OVC004

Stav a předpovědi počasí z více než 4 000 letišť (zprávy METAR a TAF).

Červené a žluté tečky na mapě představují dostupné meteorologické stanice.

Když kurzor umístíte na tečku, zobrazí se název stanice.

Pak kliknutím zobrazíte stav a předpověď počasí.

Chcete-li změnit mapu, kliknutím na zelené tlačítko se znaménkem +mapu přiblížíte, kliknutím na zelené tlačítko se znaménkem – mapu oddálíte a kliknutím na zelené šipky přejdete na sousední mapy.


METAR-TAF: